sensor_id;sensor_type;location;lat;lon;timestamp;pressure;altitude;pressure_sealevel;temperature;humidity
67457;BME280;54319;52.038;4.640;2023-02-17T00:00:10;102064.44;;;8.77;94.56
67457;BME280;54319;52.038;4.640;2023-02-17T00:02:38;102075.84;;;8.80;94.68
67457;BME280;54319;52.038;4.640;2023-02-17T00:05:05;102089.97;;;8.92;94.77
67457;BME280;54319;52.038;4.640;2023-02-17T00:07:33;102088.56;;;8.88;94.78
67457;BME280;54319;52.038;4.640;2023-02-17T00:10:00;102090.63;;;8.86;94.83
67457;BME280;54319;52.038;4.640;2023-02-17T00:12:29;102077.19;;;8.85;94.70
67457;BME280;54319;52.038;4.640;2023-02-17T00:14:55;102072.44;;;8.78;94.84
67457;BME280;54319;52.038;4.640;2023-02-17T00:17:23;102081.78;;;8.76;95.19
67457;BME280;54319;52.038;4.640;2023-02-17T00:19:52;102075.13;;;8.70;94.80
67457;BME280;54319;52.038;4.640;2023-02-17T00:22:20;102064.94;;;8.64;95.05
67457;BME280;54319;52.038;4.640;2023-02-17T00:24:47;102088.06;;;8.68;95.01
67457;BME280;54319;52.038;4.640;2023-02-17T00:27:14;102093.16;;;8.63;95.21
67457;BME280;54319;52.038;4.640;2023-02-17T00:29:43;102085.69;;;8.65;95.25
67457;BME280;54319;52.038;4.640;2023-02-17T00:32:09;102076.84;;;8.54;95.44
67457;BME280;54319;52.038;4.640;2023-02-17T00:34:37;102080.44;;;8.55;95.44
67457;BME280;54319;52.038;4.640;2023-02-17T00:37:04;102082.28;;;8.54;95.74
67457;BME280;54319;52.038;4.640;2023-02-17T00:39:31;102056.75;;;8.39;95.38
67457;BME280;54319;52.038;4.640;2023-02-17T00:41:58;102069.81;;;8.44;95.87
67457;BME280;54319;52.038;4.640;2023-02-17T00:44:25;102067.97;;;8.36;95.63
67457;BME280;54319;52.038;4.640;2023-02-17T00:46:53;102079.66;;;8.36;95.92
67457;BME280;54319;52.038;4.640;2023-02-17T00:49:22;102039.88;;;8.19;96.15
67457;BME280;54319;52.038;4.640;2023-02-17T00:51:50;102045.50;;;8.25;96.11
67457;BME280;54319;52.038;4.640;2023-02-17T00:54:17;102064.88;;;8.31;96.13
67457;BME280;54319;52.038;4.640;2023-02-17T00:56:44;102071.31;;;8.30;96.02
67457;BME280;54319;52.038;4.640;2023-02-17T00:59:12;102068.78;;;8.28;96.39
67457;BME280;54319;52.038;4.640;2023-02-17T01:01:38;102063.34;;;8.20;96.45
67457;BME280;54319;52.038;4.640;2023-02-17T01:04:07;102060.97;;;8.25;96.16
67457;BME280;54319;52.038;4.640;2023-02-17T01:06:36;102067.56;;;8.22;96.65
67457;BME280;54319;52.038;4.640;2023-02-17T01:09:07;102047.50;;;8.07;96.93
67457;BME280;54319;52.038;4.640;2023-02-17T01:11:35;102075.72;;;8.22;96.48
67457;BME280;54319;52.038;4.640;2023-02-17T01:14:03;102077.94;;;8.19;96.65
67457;BME280;54319;52.038;4.640;2023-02-17T01:16:36;102094.06;;;8.20;96.90
67457;BME280;54319;52.038;4.640;2023-02-17T01:19:05;102090.66;;;8.18;96.90
67457;BME280;54319;52.038;4.640;2023-02-17T01:21:34;102097.13;;;8.17;96.90
67457;BME280;54319;52.038;4.640;2023-02-17T01:24:04;102076.72;;;8.05;96.75
67457;BME280;54319;52.038;4.640;2023-02-17T01:26:32;102083.00;;;8.14;96.79
67457;BME280;54319;52.038;4.640;2023-02-17T01:29:00;102070.63;;;8.11;96.81
67457;BME280;54319;52.038;4.640;2023-02-17T01:31:27;102057.19;;;8.09;96.81
67457;BME280;54319;52.038;4.640;2023-02-17T01:33:55;102054.63;;;8.08;97.08
67457;BME280;54319;52.038;4.640;2023-02-17T01:36:23;102019.91;;;7.77;96.79
67457;BME280;54319;52.038;4.640;2023-02-17T01:38:51;102061.59;;;8.10;96.88
67457;BME280;54319;52.038;4.640;2023-02-17T01:41:21;102054.31;;;8.11;96.74
67457;BME280;54319;52.038;4.640;2023-02-17T01:44:10;102044.09;;;8.05;96.47
67457;BME280;54319;52.038;4.640;2023-02-17T01:46:38;102051.06;;;8.07;96.27
67457;BME280;54319;52.038;4.640;2023-02-17T01:49:14;102049.88;;;8.10;96.32
67457;BME280;54319;52.038;4.640;2023-02-17T01:51:45;102039.00;;;8.02;96.04
67457;BME280;54319;52.038;4.640;2023-02-17T01:54:19;102015.00;;;7.80;95.92
67457;BME280;54319;52.038;4.640;2023-02-17T01:56:48;102047.00;;;8.11;95.93
67457;BME280;54319;52.038;4.640;2023-02-17T01:59:19;102040.38;;;8.06;95.85
67457;BME280;54319;52.038;4.640;2023-02-17T02:01:49;102016.91;;;7.96;95.62
67457;BME280;54319;52.038;4.640;2023-02-17T02:04:20;102041.72;;;8.10;95.38
67457;BME280;54319;52.038;4.640;2023-02-17T02:06:49;102018.44;;;7.99;95.49
67457;BME280;54319;52.038;4.640;2023-02-17T02:09:20;102035.78;;;8.06;95.47
67457;BME280;54319;52.038;4.640;2023-02-17T02:11:48;102034.25;;;8.04;95.68
67457;BME280;54319;52.038;4.640;2023-02-17T02:14:15;102024.56;;;8.09;95.47
67457;BME280;54319;52.038;4.640;2023-02-17T02:16:47;102020.31;;;8.07;95.06
67457;BME280;54319;52.038;4.640;2023-02-17T02:19:36;102012.66;;;8.02;95.36
67457;BME280;54319;52.038;4.640;2023-02-17T02:22:21;102029.31;;;7.99;95.50
67457;BME280;54319;52.038;4.640;2023-02-17T02:25:05;102015.72;;;7.99;95.36
67457;BME280;54319;52.038;4.640;2023-02-17T02:27:51;101983.91;;;7.83;95.29
67457;BME280;54319;52.038;4.640;2023-02-17T02:30:40;102017.25;;;8.02;95.13
67457;BME280;54319;52.038;4.640;2023-02-17T02:33:18;102009.25;;;8.00;95.54
67457;BME280;54319;52.038;4.640;2023-02-17T02:35:55;102016.91;;;7.96;95.52
67457;BME280;54319;52.038;4.640;2023-02-17T02:38:28;101986.63;;;7.83;95.50
67457;BME280;54319;52.038;4.640;2023-02-17T02:41:02;102002.31;;;7.97;95.58
67457;BME280;54319;52.038;4.640;2023-02-17T02:43:31;102006.72;;;7.99;95.78
67457;BME280;54319;52.038;4.640;2023-02-17T02:45:58;102001.09;;;8.00;95.65
67457;BME280;54319;52.038;4.640;2023-02-17T02:48:26;102000.09;;;8.01;95.69
67457;BME280;54319;52.038;4.640;2023-02-17T02:51:01;101994.66;;;8.01;95.79
67457;BME280;54319;52.038;4.640;2023-02-17T02:56:34;101985.66;;;8.01;96.11
67457;BME280;54319;52.038;4.640;2023-02-17T02:59:13;101988.06;;;8.04;96.10
67457;BME280;54319;52.038;4.640;2023-02-17T03:01:50;101979.03;;;8.03;96.33
67457;BME280;54319;52.038;4.640;2023-02-17T03:04:27;101992.47;;;8.05;96.35
67457;BME280;54319;52.038;4.640;2023-02-17T03:07:04;101972.44;;;8.06;96.55
67457;BME280;54319;52.038;4.640;2023-02-17T03:09:35;101884.69;;;7.54;96.61
67457;BME280;54319;52.038;4.640;2023-02-17T03:12:02;101941.50;;;7.99;96.45
67457;BME280;54319;52.038;4.640;2023-02-17T03:14:29;101937.44;;;8.03;96.77
67457;BME280;54319;52.038;4.640;2023-02-17T03:17:01;101946.28;;;8.13;96.61
67457;BME280;54319;52.038;4.640;2023-02-17T03:19:30;101941.34;;;8.17;96.56
67457;BME280;54319;52.038;4.640;2023-02-17T03:22:00;101917.88;;;8.07;96.48
67457;BME280;54319;52.038;4.640;2023-02-17T03:24:30;101939.81;;;8.22;96.47
67457;BME280;54319;52.038;4.640;2023-02-17T03:26:58;101945.25;;;8.22;96.42
67457;BME280;54319;52.038;4.640;2023-02-17T03:29:25;101945.91;;;8.24;96.25
67457;BME280;54319;52.038;4.640;2023-02-17T03:31:52;101951.03;;;8.28;96.35
67457;BME280;54319;52.038;4.640;2023-02-17T03:34:19;101953.25;;;8.32;96.11
67457;BME280;54319;52.038;4.640;2023-02-17T03:36:47;101904.63;;;8.13;96.04
67457;BME280;54319;52.038;4.640;2023-02-17T03:39:14;101924.53;;;8.38;95.83
67457;BME280;54319;52.038;4.640;2023-02-17T03:41:41;101936.91;;;8.40;95.78
67457;BME280;54319;52.038;4.640;2023-02-17T03:44:08;101949.00;;;8.46;95.38
67457;BME280;54319;52.038;4.640;2023-02-17T03:46:37;101945.25;;;8.47;95.58
67457;BME280;54319;52.038;4.640;2023-02-17T03:49:05;101922.13;;;8.26;95.30
67457;BME280;54319;52.038;4.640;2023-02-17T03:51:32;101959.88;;;8.54;95.42
67457;BME280;54319;52.038;4.640;2023-02-17T03:54:02;101957.00;;;8.56;95.01
67457;BME280;54319;52.038;4.640;2023-02-17T03:56:28;101949.34;;;8.60;95.01
67457;BME280;54319;52.038;4.640;2023-02-17T03:58:55;101955.31;;;8.63;95.23
67457;BME280;54319;52.038;4.640;2023-02-17T04:01:23;101961.56;;;8.64;94.82
67457;BME280;54319;52.038;4.640;2023-02-17T04:03:50;101948.66;;;8.66;94.91
67457;BME280;54319;52.038;4.640;2023-02-17T04:06:17;101915.69;;;8.44;94.60
67457;BME280;54319;52.038;4.640;2023-02-17T04:08:44;101962.09;;;8.67;94.65
67457;BME280;54319;52.038;4.640;2023-02-17T04:11:12;101959.88;;;8.63;94.77
67457;BME280;54319;52.038;4.640;2023-02-17T04:13:39;101956.81;;;8.74;94.65
67457;BME280;54319;52.038;4.640;2023-02-17T04:16:07;101957.84;;;8.73;94.58
67457;BME280;54319;52.038;4.640;2023-02-17T04:18:34;101963.97;;;8.75;94.70
67457;BME280;54319;52.038;4.640;2023-02-17T04:21:01;101938.63;;;8.66;94.44
67457;BME280;54319;52.038;4.640;2023-02-17T04:23:28;101956.81;;;8.74;94.67
67457;BME280;54319;52.038;4.640;2023-02-17T04:25:55;101934.22;;;8.65;94.79
67457;BME280;54319;52.038;4.640;2023-02-17T04:28:24;101952.06;;;8.76;94.69
67457;BME280;54319;52.038;4.640;2023-02-17T04:30:50;101954.78;;;8.76;94.91
67457;BME280;54319;52.038;4.640;2023-02-17T04:33:18;101951.03;;;8.77;94.94
67457;BME280;54319;52.038;4.640;2023-02-17T04:35:46;101938.94;;;8.80;95.18
67457;BME280;54319;52.038;4.640;2023-02-17T04:38:13;101943.53;;;8.79;94.84
67457;BME280;54319;52.038;4.640;2023-02-17T04:40:40;101924.16;;;8.74;94.90
67457;BME280;54319;52.038;4.640;2023-02-17T04:43:07;101940.47;;;8.82;94.93
67457;BME280;54319;52.038;4.640;2023-02-17T04:45:37;101932.13;;;8.84;94.95
67457;BME280;54319;52.038;4.640;2023-02-17T04:48:05;101934.00;;;8.83;95.35
67457;BME280;54319;52.038;4.640;2023-02-17T04:50:31;101928.72;;;8.82;95.08
67457;BME280;54319;52.038;4.640;2023-02-17T04:52:58;101934.84;;;8.84;95.30
67457;BME280;54319;52.038;4.640;2023-02-17T04:55:25;101943.53;;;8.79;95.17
67457;BME280;54319;52.038;4.640;2023-02-17T04:57:53;101967.34;;;8.86;95.47
67457;BME280;54319;52.038;4.640;2023-02-17T05:00:20;101928.44;;;8.68;95.35
67457;BME280;54319;52.038;4.640;2023-02-17T05:02:49;101968.00;;;8.88;95.35
67457;BME280;54319;52.038;4.640;2023-02-17T05:05:16;101955.06;;;8.90;95.49
67457;BME280;54319;52.038;4.640;2023-02-17T05:07:43;101923.66;;;8.71;95.39
67457;BME280;54319;52.038;4.640;2023-02-17T05:10:10;101925.53;;;8.78;95.82
67457;BME280;54319;52.038;4.640;2023-02-17T05:12:38;101960.69;;;8.88;95.71
67457;BME280;54319;52.038;4.640;2023-02-17T05:15:07;101944.19;;;8.90;96.00
67457;BME280;54319;52.038;4.640;2023-02-17T05:17:34;101951.34;;;8.91;96.05
67457;BME280;54319;52.038;4.640;2023-02-17T05:20:02;101904.63;;;8.62;96.02
67457;BME280;54319;52.038;4.640;2023-02-17T05:22:31;101955.06;;;8.90;96.08
67457;BME280;54319;52.038;4.640;2023-02-17T05:24:57;101931.25;;;8.92;96.13
67457;BME280;54319;52.038;4.640;2023-02-17T05:27:24;101924.97;;;8.91;96.11
67457;BME280;54319;52.038;4.640;2023-02-17T05:29:51;101923.75;;;8.94;96.40
67457;BME280;54319;52.038;4.640;2023-02-17T05:32:18;101921.03;;;8.94;96.24
67457;BME280;54319;52.038;4.640;2023-02-17T05:34:45;101918.66;;;8.91;96.41
67457;BME280;54319;52.038;4.640;2023-02-17T05:37:13;101900.50;;;8.83;96.59
67457;BME280;54319;52.038;4.640;2023-02-17T05:39:42;101900.50;;;8.83;96.62
67457;BME280;54319;52.038;4.640;2023-02-17T05:42:08;101905.09;;;8.82;96.81
67457;BME280;54319;52.038;4.640;2023-02-17T05:44:35;101882.00;;;8.78;96.65
67457;BME280;54319;52.038;4.640;2023-02-17T05:47:03;101865.84;;;8.68;96.70
67457;BME280;54319;52.038;4.640;2023-02-17T05:49:30;101910.50;;;8.91;96.83
67457;BME280;54319;52.038;4.640;2023-02-17T05:51:56;101901.16;;;8.93;97.07
67457;BME280;54319;52.038;4.640;2023-02-17T05:54:25;101889.44;;;8.85;97.19
67457;BME280;54319;52.038;4.640;2023-02-17T05:56:51;101903.69;;;8.95;97.11
67457;BME280;54319;52.038;4.640;2023-02-17T05:59:20;101907.94;;;8.97;97.11
67457;BME280;54319;52.038;4.640;2023-02-17T06:01:47;101910.47;;;8.99;97.18
67457;BME280;54319;52.038;4.640;2023-02-17T06:04:14;101895.84;;;9.00;97.18
67457;BME280;54319;52.038;4.640;2023-02-17T06:06:40;101893.63;;;9.04;97.06
67457;BME280;54319;52.038;4.640;2023-02-17T06:09:07;101897.19;;;9.04;97.21
67457;BME280;54319;52.038;4.640;2023-02-17T06:11:41;101886.66;;;9.01;96.82
67457;BME280;54319;52.038;4.640;2023-02-17T06:14:14;101893.44;;;9.05;97.03
67457;BME280;54319;52.038;4.640;2023-02-17T06:16:41;101896.00;;;9.07;96.88
67457;BME280;54319;52.038;4.640;2023-02-17T06:19:09;101825.38;;;8.74;96.62
67457;BME280;54319;52.038;4.640;2023-02-17T06:21:35;101868.63;;;9.00;96.50
67457;BME280;54319;52.038;4.640;2023-02-17T06:24:03;101888.66;;;9.16;96.35
67457;BME280;54319;52.038;4.640;2023-02-17T06:26:30;101884.72;;;9.18;96.16
67457;BME280;54319;52.038;4.640;2023-02-17T06:28:58;101893.03;;;9.25;96.13
67457;BME280;54319;52.038;4.640;2023-02-17T06:31:25;101883.84;;;9.26;96.03
67457;BME280;54319;52.038;4.640;2023-02-17T06:33:52;101865.50;;;9.20;95.68
67457;BME280;54319;52.038;4.640;2023-02-17T06:36:19;101867.63;;;9.33;95.27
67457;BME280;54319;52.038;4.640;2023-02-17T06:38:46;101875.81;;;9.33;95.16
67457;BME280;54319;52.038;4.640;2023-02-17T06:41:13;101865.59;;;9.35;95.10
67457;BME280;54319;52.038;4.640;2023-02-17T06:43:40;101876.28;;;9.36;95.19
67457;BME280;54319;52.038;4.640;2023-02-17T06:46:08;101807.69;;;9.09;94.92
67457;BME280;54319;52.038;4.640;2023-02-17T06:48:35;101860.25;;;9.41;94.62
67457;BME280;54319;52.038;4.640;2023-02-17T06:51:02;101868.06;;;9.45;94.52
67457;BME280;54319;52.038;4.640;2023-02-17T06:53:29;101867.03;;;9.46;94.54
67457;BME280;54319;52.038;4.640;2023-02-17T06:55:55;101862.59;;;9.45;94.50
67457;BME280;54319;52.038;4.640;2023-02-17T06:58:23;101842.78;;;9.36;94.46
67457;BME280;54319;52.038;4.640;2023-02-17T07:00:51;101871.78;;;9.52;94.30
67457;BME280;54319;52.038;4.640;2023-02-17T07:03:19;101678.50;;;8.34;93.97
67457;BME280;54319;52.038;4.640;2023-02-17T07:05:46;101867.03;;;9.46;93.75
67457;BME280;54319;52.038;4.640;2023-02-17T07:08:13;101870.38;;;9.56;93.70
67457;BME280;54319;52.038;4.640;2023-02-17T07:10:39;101870.38;;;9.56;93.76
67457;BME280;54319;52.038;4.640;2023-02-17T07:13:07;101871.22;;;9.56;93.53
67457;BME280;54319;52.038;4.640;2023-02-17T07:15:34;101885.72;;;9.57;93.71
67457;BME280;54319;52.038;4.640;2023-02-17T07:18:01;101897.94;;;9.61;93.35
67457;BME280;54319;52.038;4.640;2023-02-17T07:20:29;101892.28;;;9.63;93.30
67457;BME280;54319;52.038;4.640;2023-02-17T07:22:57;101881.44;;;9.54;93.17
67457;BME280;54319;52.038;4.640;2023-02-17T07:25:24;101882.69;;;9.44;93.25
67457;BME280;54319;52.038;4.640;2023-02-17T07:27:51;101887.94;;;9.53;93.54
67457;BME280;54319;52.038;4.640;2023-02-17T07:30:18;101886.22;;;9.52;93.34
67457;BME280;54319;52.038;4.640;2023-02-17T07:32:45;101857.22;;;9.36;93.40
67457;BME280;54319;52.038;4.640;2023-02-17T07:35:11;101888.28;;;9.50;93.14
67457;BME280;54319;52.038;4.640;2023-02-17T07:37:40;101875.63;;;9.34;93.14
67457;BME280;54319;52.038;4.640;2023-02-17T07:40:07;101892.56;;;9.45;93.21
67457;BME280;54319;52.038;4.640;2023-02-17T07:42:34;101883.25;;;9.39;93.36
67457;BME280;54319;52.038;4.640;2023-02-17T07:45:01;101891.59;;;9.37;93.49
67457;BME280;54319;52.038;4.640;2023-02-17T07:47:30;101889.22;;;9.34;93.46
67457;BME280;54319;52.038;4.640;2023-02-17T07:49:57;101892.66;;;9.28;93.79
67457;BME280;54319;52.038;4.640;2023-02-17T07:52:23;101894.00;;;9.32;93.87
67457;BME280;54319;52.038;4.640;2023-02-17T07:54:52;101889.91;;;9.36;93.87
67457;BME280;54319;52.038;4.640;2023-02-17T07:57:19;101869.41;;;9.17;93.67
67457;BME280;54319;52.038;4.640;2023-02-17T07:59:46;101902.50;;;9.37;93.80
67457;BME280;54319;52.038;4.640;2023-02-17T08:02:12;101911.69;;;9.36;93.65
67457;BME280;54319;52.038;4.640;2023-02-17T08:04:40;101928.38;;;9.33;93.82
67457;BME280;54319;52.038;4.640;2023-02-17T08:07:06;101879.41;;;9.25;93.41
67457;BME280;54319;52.038;4.640;2023-02-17T08:09:34;101931.41;;;9.38;93.68
67457;BME280;54319;52.038;4.640;2023-02-17T08:12:19;101941.84;;;9.35;93.53
67457;BME280;54319;52.038;4.640;2023-02-17T08:15:07;101930.44;;;9.31;93.87
67457;BME280;54319;52.038;4.640;2023-02-17T08:17:34;101923.97;;;9.32;93.75
67457;BME280;54319;52.038;4.640;2023-02-17T08:20:01;101905.94;;;9.31;93.97
67457;BME280;54319;52.038;4.640;2023-02-17T08:22:29;101916.16;;;9.29;94.32
67457;BME280;54319;52.038;4.640;2023-02-17T08:24:55;101923.28;;;9.30;94.08
67457;BME280;54319;52.038;4.640;2023-02-17T08:27:24;101926.53;;;9.34;94.24
67457;BME280;54319;52.038;4.640;2023-02-17T08:29:51;101940.13;;;9.34;94.13
67457;BME280;54319;52.038;4.640;2023-02-17T08:32:17;101931.78;;;9.35;94.12
67457;BME280;54319;52.038;4.640;2023-02-17T08:34:44;101933.09;;;9.39;93.73
67457;BME280;54319;52.038;4.640;2023-02-17T08:37:11;101934.53;;;9.27;93.79
67457;BME280;54319;52.038;4.640;2023-02-17T08:39:38;101955.56;;;9.41;93.66
67457;BME280;54319;52.038;4.640;2023-02-17T08:42:05;101942.63;;;9.44;93.63
67457;BME280;54319;52.038;4.640;2023-02-17T08:44:35;101955.88;;;9.47;93.33
67457;BME280;54319;52.038;4.640;2023-02-17T08:47:03;101941.25;;;9.48;93.23
67457;BME280;54319;52.038;4.640;2023-02-17T08:49:30;101941.75;;;9.51;92.80
67457;BME280;54319;52.038;4.640;2023-02-17T08:51:58;101906.78;;;9.32;92.62
67457;BME280;54319;52.038;4.640;2023-02-17T08:54:25;101928.03;;;9.36;92.68
67457;BME280;54319;52.038;4.640;2023-02-17T08:56:52;101944.72;;;9.65;92.47
67457;BME280;54319;52.038;4.640;2023-02-17T08:59:19;101943.53;;;9.67;92.13
67457;BME280;54319;52.038;4.640;2023-02-17T09:01:49;101938.69;;;9.78;91.71
67457;BME280;54319;52.038;4.640;2023-02-17T09:04:17;101935.31;;;9.76;91.48
67457;BME280;54319;52.038;4.640;2023-02-17T09:06:45;101926.16;;;9.68;91.56
67457;BME280;54319;52.038;4.640;2023-02-17T09:09:15;101947.59;;;9.72;91.71
67457;BME280;54319;52.038;4.640;2023-02-17T09:11:42;101958.50;;;9.72;91.57
67457;BME280;54319;52.038;4.640;2023-02-17T09:14:10;101966.72;;;9.63;91.80
67457;BME280;54319;52.038;4.640;2023-02-17T09:16:38;101971.09;;;9.73;91.55
67457;BME280;54319;52.038;4.640;2023-02-17T09:19:06;101969.34;;;9.80;91.50
67457;BME280;54319;52.038;4.640;2023-02-17T09:21:33;101964.56;;;9.82;91.33
67457;BME280;54319;52.038;4.640;2023-02-17T09:24:00;101962.47;;;9.92;91.05
67457;BME280;54319;52.038;4.640;2023-02-17T09:26:27;101947.00;;;9.84;91.10
67457;BME280;54319;52.038;4.640;2023-02-17T09:28:54;101949.13;;;9.97;90.92
67457;BME280;54319;52.038;4.640;2023-02-17T09:31:23;101943.41;;;9.84;90.87
67457;BME280;54319;52.038;4.640;2023-02-17T09:33:51;101939.25;;;9.96;90.82
67457;BME280;54319;52.038;4.640;2023-02-17T09:36:21;101946.56;;;9.96;90.74
67457;BME280;54319;52.038;4.640;2023-02-17T09:38:49;101943.56;;;9.91;90.95
67457;BME280;54319;52.038;4.640;2023-02-17T09:41:18;101962.84;;;9.89;91.07
67457;BME280;54319;52.038;4.640;2023-02-17T09:43:48;101944.06;;;9.94;91.03
67457;BME280;54319;52.038;4.640;2023-02-17T09:46:19;101969.69;;;10.08;91.11
67457;BME280;54319;52.038;4.640;2023-02-17T09:48:48;101967.94;;;10.16;90.56
67457;BME280;54319;52.038;4.640;2023-02-17T09:51:24;101977.13;;;10.14;90.48
67457;BME280;54319;52.038;4.640;2023-02-17T09:54:02;101988.22;;;10.13;90.37
67457;BME280;54319;52.038;4.640;2023-02-17T09:56:34;101977.59;;;10.18;90.32
67457;BME280;54319;52.038;4.640;2023-02-17T09:59:07;101990.16;;;10.27;90.04
67457;BME280;54319;52.038;4.640;2023-02-17T10:01:39;101994.41;;;10.30;90.18
67457;BME280;54319;52.038;4.640;2023-02-17T10:04:10;101972.69;;;10.37;89.62
67457;BME280;54319;52.038;4.640;2023-02-17T10:06:42;101972.69;;;10.37;89.58
67457;BME280;54319;52.038;4.640;2023-02-17T10:09:15;101991.25;;;10.41;89.46
67457;BME280;54319;52.038;4.640;2023-02-17T10:11:47;101972.03;;;10.35;89.35
67457;BME280;54319;52.038;4.640;2023-02-17T10:14:21;101997.22;;;10.45;89.26
67457;BME280;54319;52.038;4.640;2023-02-17T10:16:52;101992.72;;;10.52;89.18
67457;BME280;54319;52.038;4.640;2023-02-17T10:19:26;101974.66;;;10.51;88.67
67457;BME280;54319;52.038;4.640;2023-02-17T10:22:05;101965.53;;;10.59;89.01
67457;BME280;54319;52.038;4.640;2023-02-17T10:24:33;101985.47;;;10.60;88.54
67457;BME280;54319;52.038;4.640;2023-02-17T10:27:07;101992.84;;;10.59;88.50
67457;BME280;54319;52.038;4.640;2023-02-17T10:29:45;101998.53;;;10.49;88.34
67457;BME280;54319;52.038;4.640;2023-02-17T10:32:19;101998.41;;;10.66;88.47
67457;BME280;54319;52.038;4.640;2023-02-17T10:34:56;102011.97;;;10.74;87.83
67457;BME280;54319;52.038;4.640;2023-02-17T10:37:37;101966.00;;;10.39;87.89
67457;BME280;54319;52.038;4.640;2023-02-17T10:40:18;101999.06;;;10.68;88.17
67457;BME280;54319;52.038;4.640;2023-02-17T10:42:47;102016.56;;;10.74;88.01
67457;BME280;54319;52.038;4.640;2023-02-17T10:45:22;101980.38;;;10.33;88.25
67457;BME280;54319;52.038;4.640;2023-02-17T10:47:55;102020.13;;;10.59;88.40
67457;BME280;54319;52.038;4.640;2023-02-17T10:50:24;102011.78;;;10.61;88.30
67457;BME280;54319;52.038;4.640;2023-02-17T10:52:54;102028.84;;;10.54;88.46
67457;BME280;54319;52.038;4.640;2023-02-17T10:55:28;102040.63;;;10.55;88.34
67457;BME280;54319;52.038;4.640;2023-02-17T10:58:02;102045.03;;;10.56;88.13
67457;BME280;54319;52.038;4.640;2023-02-17T11:00:30;102035.34;;;10.53;88.03
67457;BME280;54319;52.038;4.640;2023-02-17T11:02:58;102062.03;;;10.43;88.07
67457;BME280;54319;52.038;4.640;2023-02-17T11:05:28;102050.38;;;10.49;88.12
67457;BME280;54319;52.038;4.640;2023-02-17T11:07:59;102022.16;;;10.34;88.43
67457;BME280;54319;52.038;4.640;2023-02-17T11:10:29;102022.47;;;10.39;88.55
67457;BME280;54319;52.038;4.640;2023-02-17T11:12:57;102016.84;;;10.40;88.74
67457;BME280;54319;52.038;4.640;2023-02-17T11:15:26;102017.19;;;10.37;88.41
67457;BME280;54319;52.038;4.640;2023-02-17T11:17:58;102025.63;;;10.27;88.73
67457;BME280;54319;52.038;4.640;2023-02-17T11:20:34;102049.50;;;10.25;88.59
67457;BME280;54319;52.038;4.640;2023-02-17T11:23:20;102016.72;;;10.34;88.50
67457;BME280;54319;52.038;4.640;2023-02-17T11:26:01;102029.28;;;10.43;88.04
67457;BME280;54319;52.038;4.640;2023-02-17T11:28:29;102037.09;;;10.46;88.03
67457;BME280;54319;52.038;4.640;2023-02-17T11:30:58;102039.19;;;10.36;88.00
67457;BME280;54319;52.038;4.640;2023-02-17T11:33:33;102032.13;;;10.26;87.78
67457;BME280;54319;52.038;4.640;2023-02-17T11:36:03;102049.91;;;10.46;87.86
67457;BME280;54319;52.038;4.640;2023-02-17T11:38:42;101996.09;;;10.08;87.91
67457;BME280;54319;52.038;4.640;2023-02-17T11:41:09;102038.66;;;10.40;88.00
67457;BME280;54319;52.038;4.640;2023-02-17T11:43:37;102051.09;;;10.43;87.65
67457;BME280;54319;52.038;4.640;2023-02-17T11:46:12;102059.13;;;10.36;87.62
67457;BME280;54319;52.038;4.640;2023-02-17T11:49:02;102046.34;;;10.37;87.50
67457;BME280;54319;52.038;4.640;2023-02-17T11:51:38;102042.56;;;10.46;87.65
67457;BME280;54319;52.038;4.640;2023-02-17T11:54:19;102055.16;;;10.47;87.29
67457;BME280;54319;52.038;4.640;2023-02-17T11:56:58;102068.63;;;10.49;87.39
67457;BME280;54319;52.038;4.640;2023-02-17T11:59:39;102086.72;;;10.50;87.49
67457;BME280;54319;52.038;4.640;2023-02-17T12:02:17;102083.56;;;10.61;86.72
67457;BME280;54319;52.038;4.640;2023-02-17T12:05:08;102087.19;;;10.53;87.18
67457;BME280;54319;52.038;4.640;2023-02-17T12:07:54;102087.53;;;10.50;87.41
67457;BME280;54319;52.038;4.640;2023-02-17T12:10:37;102094.28;;;10.63;86.97
67457;BME280;54319;52.038;4.640;2023-02-17T12:13:21;102103.84;;;10.59;86.63
67457;BME280;54319;52.038;4.640;2023-02-17T12:15:57;102087.81;;;10.64;86.38
67457;BME280;54319;52.038;4.640;2023-02-17T12:18:48;102097.03;;;10.63;86.23
67457;BME280;54319;52.038;4.640;2023-02-17T12:21:27;102096.53;;;10.59;86.25
67457;BME280;54319;52.038;4.640;2023-02-17T12:24:06;102093.28;;;10.55;86.38
67457;BME280;54319;52.038;4.640;2023-02-17T12:26:43;102106.47;;;10.52;86.79
67457;BME280;54319;52.038;4.640;2023-02-17T12:29:20;102094.22;;;10.48;86.67
67457;BME280;54319;52.038;4.640;2023-02-17T12:32:09;102092.88;;;10.35;86.95
67457;BME280;54319;52.038;4.640;2023-02-17T12:34:40;102102.09;;;10.42;87.09
67457;BME280;54319;52.038;4.640;2023-02-17T12:37:16;102117.25;;;10.45;87.00
67457;BME280;54319;52.038;4.640;2023-02-17T12:39:47;102119.97;;;10.45;87.19
67457;BME280;54319;52.038;4.640;2023-02-17T12:42:21;102113.50;;;10.46;86.84
67457;BME280;54319;52.038;4.640;2023-02-17T12:44:52;102122.34;;;10.48;86.48
67457;BME280;54319;52.038;4.640;2023-02-17T12:47:27;102116.94;;;10.40;86.87
67457;BME280;54319;52.038;4.640;2023-02-17T12:50:00;102120.53;;;10.32;86.84
67457;BME280;54319;52.038;4.640;2023-02-17T12:52:31;102136.03;;;10.40;86.89
67457;BME280;54319;52.038;4.640;2023-02-17T12:55:02;102128.53;;;10.34;86.88
67457;BME280;54319;52.038;4.640;2023-02-17T12:57:39;102123.34;;;10.16;87.34
67457;BME280;54319;52.038;4.640;2023-02-17T13:00:14;102072.88;;;9.88;86.98
67457;BME280;54319;52.038;4.640;2023-02-17T13:02:45;102147.00;;;10.23;87.18
67457;BME280;54319;52.038;4.640;2023-02-17T13:05:19;102117.13;;;9.98;87.88
67457;BME280;54319;52.038;4.640;2023-02-17T13:07:54;102134.56;;;10.21;87.33
67457;BME280;54319;52.038;4.640;2023-02-17T13:10:33;102104.06;;;10.17;87.32
67457;BME280;54319;52.038;4.640;2023-02-17T13:13:05;102129.84;;;10.46;87.35
67457;BME280;54319;52.038;4.640;2023-02-17T13:15:35;102135.94;;;10.56;86.05